Time;durP1;ratioP1;P1;durP2;ratioP2;P2;SDS_P1;SDS_P2;PMS_P1;PMS_P2;Temp;Humidity;BMP_temperature;BMP_pressure;BME280_temperature;BME280_humidity;BME280_pressure;Samples;Min_cycle;Max_cycle;Signal;HPM_P1;HPM_P2
2023/03/09 00:01:18;;;;;;;0.40;0.40;;;;;;;9.63;80.79;98830.03;5053756;28;20254;-60
2023/03/09 00:03:45;;;;;;;0.50;0.50;;;;;;;9.67;80.82;98831.56;5052549;28;20193;-60
2023/03/09 00:06:12;;;;;;;0.43;0.43;;;;;;;9.68;80.36;98833.25;5054046;28;20549;-60
2023/03/09 00:08:40;;;;;;;0.63;0.63;;;;;;;9.30;80.53;98768.09;5051952;28;20212;-60
2023/03/09 00:11:08;;;;;;;0.50;0.50;;;;;;;9.68;79.93;98830.69;5054131;28;20644;-60
2023/03/09 00:13:36;;;;;;;0.60;0.60;;;;;;;9.66;79.52;98825.63;5054705;28;20203;-60
2023/03/09 00:16:11;;;;;;;0.47;0.47;;;;;;;9.68;79.82;98830.69;5054499;28;20718;-60
2023/03/09 00:18:38;;;;;;;0.50;0.50;;;;;;;9.62;79.82;98823.25;5051524;28;20279;-60
2023/03/09 00:21:05;;;;;;;0.50;0.50;;;;;;;9.55;79.81;98821.78;5052800;28;20642;-61
2023/03/09 00:23:33;;;;;;;0.50;0.50;;;;;;;9.54;80.02;98820.09;5049086;28;20212;-59
2023/03/09 00:26:05;;;;;;;0.70;0.70;;;;;;;9.49;80.04;98823.69;5053871;28;20283;-61
2023/03/09 00:28:33;;;;;;;0.40;0.40;;;;;;;9.42;80.24;98806.88;5053964;28;20201;-60
2023/03/09 00:31:04;;;;;;;1.20;1.20;;;;;;;9.39;80.36;98796.75;5053443;28;20224;-60
2023/03/09 00:33:31;;;;;;;0.60;0.60;;;;;;;9.39;80.53;98801.03;5052903;28;20196;-61
2023/03/09 00:35:58;;;;;;;0.40;0.40;;;;;;;9.28;80.39;98793.72;5053990;28;20192;-61
2023/03/09 00:38:25;;;;;;;0.50;0.50;;;;;;;9.29;80.66;98790.28;5053489;28;20201;-61
2023/03/09 00:40:52;;;;;;;0.50;0.50;;;;;;;9.21;80.53;98776.91;5050217;28;20200;-60
2023/03/09 00:43:20;;;;;;;0.40;0.40;;;;;;;9.23;81.36;98789.66;5053167;28;20205;-60
2023/03/09 00:45:47;;;;;;;0.53;0.53;;;;;;;9.21;81.26;98792.25;5053778;28;20201;-60
2023/03/09 00:48:14;;;;;;;0.40;0.40;;;;;;;9.21;81.11;98788.88;5052820;28;20285;-60
2023/03/09 00:50:41;;;;;;;1.07;1.07;;;;;;;9.17;81.19;98790.72;5053124;28;20193;-60
2023/03/09 00:53:08;;;;;;;0.40;0.40;;;;;;;9.15;81.22;98786.50;5053471;28;20255;-60
2023/03/09 00:55:35;;;;;;;0.40;0.40;;;;;;;8.79;81.03;98719.56;5053133;28;20200;-60
2023/03/09 00:58:01;;;;;;;0.40;0.40;;;;;;;8.98;81.27;98768.38;5053159;28;20197;-60
2023/03/09 01:00:32;;;;;;;0.50;0.50;;;;;;;9.06;81.18;98772.31;5050275;28;20219;-61
2023/03/09 01:02:59;;;;;;;0.40;0.40;;;;;;;9.03;81.02;98762.22;5053176;28;20201;-61
2023/03/09 01:05:26;;;;;;;0.53;0.53;;;;;;;9.08;81.63;98775.66;5053375;28;20203;-60
2023/03/09 01:07:53;;;;;;;0.47;0.47;;;;;;;9.09;81.44;98785.00;5052935;28;20544;-61
2023/03/09 01:10:20;;;;;;;0.40;0.40;;;;;;;9.08;81.09;98779.97;5051064;28;20197;-60
2023/03/09 01:12:47;;;;;;;0.80;0.80;;;;;;;9.04;81.46;98774.13;5051635;28;20213;-60
2023/03/09 01:15:13;;;;;;;0.60;0.60;;;;;;;9.00;81.86;98772.53;5053611;28;20220;-60
2023/03/09 01:17:42;;;;;;;0.40;0.40;;;;;;;8.97;82.15;98767.53;5051936;28;20196;-60
2023/03/09 01:20:11;;;;;;;0.50;0.50;;;;;;;8.88;82.90;98768.69;5052221;28;20606;-60
2023/03/09 01:22:38;;;;;;;0.43;0.43;;;;;;;8.83;83.13;98767.16;5050808;28;20201;-60
2023/03/09 01:25:06;;;;;;;0.40;0.40;;;;;;;8.83;83.03;98762.03;5052888;28;20197;-60
2023/03/09 01:27:33;;;;;;;0.57;0.57;;;;;;;8.79;83.25;98763.00;5053085;28;20201;-60
2023/03/09 01:30:00;;;;;;;0.60;0.60;;;;;;;8.71;83.63;98744.56;5052032;28;20203;-60
2023/03/09 01:32:27;;;;;;;0.40;0.40;;;;;;;8.76;83.75;98755.44;5051662;28;20707;-60
2023/03/09 01:34:55;;;;;;;1.47;1.37;;;;;;;8.71;83.96;98754.78;5052515;28;20197;-61
2023/03/09 01:37:22;;;;;;;0.63;0.63;;;;;;;8.69;84.07;98741.22;5050818;28;20205;-60
2023/03/09 01:39:48;;;;;;;0.50;0.50;;;;;;;8.70;84.10;98737.78;5051250;28;20583;-61
2023/03/09 01:42:15;;;;;;;0.40;0.40;;;;;;;8.58;84.33;98720.31;5051002;28;20200;-59
2023/03/09 01:44:42;;;;;;;0.50;0.50;;;;;;;8.67;84.88;98737.88;5052551;28;20580;-60
2023/03/09 01:47:09;;;;;;;0.40;0.40;;;;;;;8.71;84.68;98739.44;5052521;28;20207;-60
2023/03/09 01:49:41;;;;;;;0.50;0.50;;;;;;;8.75;84.80;98743.59;5052185;28;20222;-59
2023/03/09 01:52:16;;;;;;;0.50;0.50;;;;;;;8.75;84.51;98741.88;5052127;28;20217;-60
2023/03/09 01:54:48;;;;;;;0.50;0.50;;;;;;;8.74;85.17;98736.78;5052411;28;20234;-60
2023/03/09 01:57:22;;;;;;;0.40;0.40;;;;;;;8.79;85.30;98747.69;5049633;28;20686;-60
2023/03/09 01:59:51;;;;;;;0.50;0.50;;;;;;;8.82;85.47;98742.50;5051503;28;20196;-60
2023/03/09 02:02:19;;;;;;;0.47;0.47;;;;;;;8.84;84.87;98731.34;5049799;28;20188;-60
2023/03/09 02:04:51;;;;;;;0.70;0.70;;;;;;;8.96;84.46;98730.06;5048373;28;20193;-60
2023/03/09 02:07:22;;;;;;;0.60;0.60;;;;;;;8.98;83.98;98734.22;5052090;28;20725;-61
2023/03/09 02:09:53;;;;;;;0.40;0.40;;;;;;;8.92;83.67;98723.38;5049600;28;20262;-59
2023/03/09 02:12:22;;;;;;;0.50;0.50;;;;;;;8.99;83.07;98732.50;5051752;28;20255;-60
2023/03/09 02:14:50;;;;;;;0.60;0.60;;;;;;;8.96;83.19;98730.06;5052326;28;20205;-61
2023/03/09 02:17:17;;;;;;;0.70;0.70;;;;;;;8.95;82.94;98736.06;5050762;28;20200;-60
2023/03/09 02:19:53;;;;;;;0.50;0.50;;;;;;;8.93;82.40;98732.72;5048070;28;20646;-60
2023/03/09 02:22:22;;;;;;;0.40;0.40;;;;;;;8.91;82.61;98739.63;5050836;28;20197;-61
2023/03/09 02:24:59;;;;;;;0.50;0.50;;;;;;;8.78;82.02;98716.22;5051931;28;20216;-60
2023/03/09 02:27:28;;;;;;;0.50;0.50;;;;;;;8.78;82.54;98726.44;5049917;28;20199;-60
2023/03/09 02:29:56;;;;;;;0.60;0.60;;;;;;;8.74;82.10;98729.13;5050718;28;20203;-60
2023/03/09 02:32:23;;;;;;;0.43;0.43;;;;;;;8.70;82.10;98725.84;5050812;28;20212;-59
2023/03/09 02:34:50;;;;;;;0.63;0.63;;;;;;;8.65;82.36;98729.44;5051558;28;20579;-60
2023/03/09 02:37:28;;;;;;;0.50;0.50;;;;;;;8.52;82.92;98712.84;5051695;28;20215;-60
2023/03/09 02:39:59;;;;;;;0.60;0.60;;;;;;;8.44;83.21;98711.38;5050905;28;20622;-60
2023/03/09 02:42:28;;;;;;;0.47;0.47;;;;;;;8.40;83.70;98720.00;5047428;28;20193;-60
2023/03/09 02:44:56;;;;;;;0.60;0.60;;;;;;;8.19;83.85;98691.75;5051456;28;20260;-60
2023/03/09 02:47:23;;;;;;;0.40;0.40;;;;;;;8.16;85.04;98702.91;5051141;28;20201;-60
2023/03/09 02:49:50;;;;;;;0.60;0.60;;;;;;;8.13;84.98;98700.44;5049894;28;20280;-60
2023/03/09 02:52:17;;;;;;;0.50;0.50;;;;;;;8.12;85.33;98708.97;5050624;28;20223;-61
2023/03/09 02:54:45;;;;;;;0.50;0.50;;;;;;;8.11;85.98;98704.75;5051099;28;20239;-60
2023/03/09 02:57:12;;;;;;;0.50;0.50;;;;;;;8.06;85.85;98714.28;5051016;28;20204;-60
2023/03/09 02:59:40;;;;;;;0.90;0.90;;;;;;;7.99;86.47;98723.00;5048324;28;20212;-60
2023/03/09 03:02:07;;;;;;;0.57;0.57;;;;;;;7.87;87.13;98715.72;5049362;28;20200;-60
2023/03/09 03:04:34;;;;;;;0.77;0.77;;;;;;;7.81;87.06;98698.88;5051150;28;20211;-60
2023/03/09 03:07:01;;;;;;;0.50;0.50;;;;;;;7.91;86.98;98717.31;5047790;28;20201;-60
2023/03/09 03:09:28;;;;;;;0.60;0.60;;;;;;;7.97;87.21;98729.88;5048381;28;20369;-60
2023/03/09 03:11:55;;;;;;;0.50;0.50;;;;;;;7.98;87.34;98741.72;5042857;28;20700;-73
2023/03/09 03:14:21;;;;;;;0.50;0.50;;;;;;;7.81;87.10;98721.00;5044890;28;20650;-73
2023/03/09 03:16:50;;;;;;;0.50;0.50;;;;;;;7.91;87.50;98732.63;5050427;28;20656;-73
2023/03/09 03:19:16;;;;;;;0.60;0.60;;;;;;;7.90;87.21;98733.47;5049490;28;20695;-73
2023/03/09 03:21:43;;;;;;;0.50;0.50;;;;;;;7.93;87.20;98724.03;5048906;28;20195;-73
2023/03/09 03:24:10;;;;;;;0.50;0.50;;;;;;;7.96;87.48;98732.47;5050646;28;20579;-72
2023/03/09 03:26:37;;;;;;;0.60;0.60;;;;;;;7.94;87.43;98735.06;5050714;28;20656;-72
2023/03/09 03:29:04;;;;;;;0.50;0.50;;;;;;;7.94;87.45;98727.41;5049830;28;20199;-72
2023/03/09 03:31:31;;;;;;;0.60;0.60;;;;;;;7.95;87.69;98734.16;5048109;28;20197;-73
2023/03/09 03:33:59;;;;;;;0.60;0.60;;;;;;;7.98;87.95;98736.63;5049645;28;20219;-71
2023/03/09 03:36:26;;;;;;;1.53;1.43;;;;;;;7.92;88.27;98731.72;5050469;28;20200;-73
2023/03/09 03:38:53;;;;;;;0.40;0.40;;;;;;;7.97;88.05;98740.09;5048853;28;20674;-73
2023/03/09 03:41:20;;;;;;;0.50;0.50;;;;;;;7.98;88.11;98735.81;5049104;28;20259;-73
2023/03/09 03:43:46;;;;;;;0.50;0.50;;;;;;;7.96;88.00;98737.56;5050438;28;20217;-72
2023/03/09 03:46:13;;;;;;;0.53;0.53;;;;;;;8.00;87.84;98734.88;5050337;28;20208;-72
2023/03/09 03:48:42;;;;;;;0.50;0.50;;;;;;;8.01;88.14;98731.47;5049579;28;20197;-73
2023/03/09 03:51:10;;;;;;;0.50;0.50;;;;;;;8.07;88.06;98725.31;5046480;28;20208;-72
2023/03/09 03:53:37;;;;;;;0.67;0.67;;;;;;;8.12;88.13;98724.28;5050445;28;20649;-72
2023/03/09 03:56:04;;;;;;;0.80;0.80;;;;;;;8.09;88.14;98721.00;5050115;28;20200;-73
2023/03/09 03:58:31;;;;;;;0.57;0.57;;;;;;;8.16;87.37;98730.13;5049472;28;20652;-72
2023/03/09 04:00:58;;;;;;;0.40;0.40;;;;;;;8.15;87.67;98729.28;5050278;28;20201;-73
2023/03/09 04:03:25;;;;;;;0.60;0.60;;;;;;;8.23;87.14;98741.84;5048089;28;20284;-72
2023/03/09 04:05:51;;;;;;;0.60;0.60;;;;;;;8.23;87.05;98727.34;5048028;28;20205;-73
2023/03/09 04:08:20;;;;;;;0.40;0.40;;;;;;;8.34;87.27;98734.69;5049211;28;20204;-72
2023/03/09 04:10:46;;;;;;;0.60;0.60;;;;;;;8.38;87.40;98739.66;5048171;28;20204;-73
2023/03/09 04:13:13;;;;;;;0.53;0.53;;;;;;;8.42;87.16;98733.56;5046444;28;20220;-73
2023/03/09 04:15:40;;;;;;;0.50;0.50;;;;;;;8.44;87.60;98736.91;5049838;28;20196;-72
2023/03/09 04:18:07;;;;;;;0.60;0.60;;;;;;;8.48;87.62;98737.66;5049153;28;20644;-73
2023/03/09 04:20:34;;;;;;;0.50;0.50;;;;;;;8.50;87.13;98737.63;5048322;28;20193;-72
2023/03/09 04:23:01;;;;;;;0.50;0.50;;;;;;;8.54;87.63;98736.59;5045704;28;20213;-73
2023/03/09 04:25:29;;;;;;;0.63;0.63;;;;;;;8.55;87.07;98743.41;5047264;28;20200;-72
2023/03/09 04:27:56;;;;;;;0.60;0.60;;;;;;;8.58;86.96;98748.41;5049550;28;20664;-73
2023/03/09 04:30:23;;;;;;;0.50;0.50;;;;;;;8.62;87.11;98752.53;5049556;28;20288;-73
2023/03/09 04:32:50;;;;;;;0.60;0.60;;;;;;;8.62;86.36;98761.03;5049342;28;20217;-73
2023/03/09 04:35:18;;;;;;;0.40;0.40;;;;;;;8.60;86.02;98733.84;5049968;28;20197;-73
2023/03/09 04:37:45;;;;;;;0.70;0.70;;;;;;;8.66;85.80;98743.88;5049994;28;20201;-72
2023/03/09 04:40:13;;;;;;;0.50;0.50;;;;;;;8.66;85.36;98739.59;5046969;28;20242;-73
2023/03/09 04:42:41;;;;;;;0.60;0.60;;;;;;;8.67;85.55;98745.53;5049526;28;20661;-73
2023/03/09 04:45:09;;;;;;;0.77;0.77;;;;;;;8.58;85.34;98743.28;5051099;28;20306;-73
2023/03/09 04:47:36;;;;;;;0.60;0.60;;;;;;;8.53;85.58;98743.44;5050363;28;20779;-73
2023/03/09 04:50:02;;;;;;;0.60;0.60;;;;;;;8.50;85.71;98740.16;5048020;28;20208;-72
2023/03/09 04:52:30;;;;;;;0.70;0.70;;;;;;;8.48;85.87;98739.34;5050684;28;20255;-73
2023/03/09 04:54:57;;;;;;;0.57;0.57;;;;;;;8.48;85.52;98737.66;5046868;28;20197;-72
2023/03/09 04:57:23;;;;;;;0.63;0.63;;;;;;;8.48;86.10;98736.81;5046957;28;20630;-73
2023/03/09 04:59:52;;;;;;;0.50;0.50;;;;;;;8.44;85.81;98742.00;5039130;28;20253;-72
2023/03/09 05:02:18;;;;;;;0.50;0.50;;;;;;;8.37;86.04;98745.63;5042707;28;20201;-72
2023/03/09 05:04:45;;;;;;;0.50;0.50;;;;;;;8.20;86.42;98732.56;5045772;28;20196;-72
2023/03/09 05:07:12;;;;;;;0.50;0.50;;;;;;;8.34;86.40;98758.50;5053092;28;20265;-73
2023/03/09 05:09:39;;;;;;;0.50;0.50;;;;;;;8.31;86.74;98755.22;5052110;28;20621;-72
2023/03/09 05:12:06;;;;;;;0.57;0.57;;;;;;;8.31;86.36;98758.59;5045837;28;20224;-72
2023/03/09 05:14:33;;;;;;;0.40;0.40;;;;;;;8.37;86.21;98765.22;5052890;28;20192;-73
2023/03/09 05:17:01;;;;;;;0.70;0.70;;;;;;;8.34;86.22;98742.34;5053064;28;20208;-72
2023/03/09 05:19:28;;;;;;;0.60;0.60;;;;;;;8.49;84.80;98762.31;5048918;28;20204;-72
2023/03/09 05:21:55;;;;;;;0.60;0.60;;;;;;;8.43;84.56;98742.88;5046311;28;21772;-72
2023/03/09 05:24:21;;;;;;;0.60;0.60;;;;;;;8.43;84.79;98745.44;5053002;28;20205;-72
2023/03/09 05:26:48;;;;;;;0.53;0.53;;;;;;;8.38;85.45;98742.22;5052609;28;20204;-72
2023/03/09 05:29:16;;;;;;;0.70;0.70;;;;;;;8.36;85.54;98731.22;5052213;28;20192;-72
2023/03/09 05:31:42;;;;;;;0.50;0.50;;;;;;;8.51;85.29;98749.47;5052687;28;20204;-72
2023/03/09 05:34:10;;;;;;;1.13;1.13;;;;;;;8.50;85.81;98740.16;5049617;28;20224;-72
2023/03/09 05:36:37;;;;;;;1.50;1.50;;;;;;;8.53;85.73;98747.72;5051365;28;20558;-72
2023/03/09 05:39:04;;;;;;;1.27;1.27;;;;;;;8.58;85.51;98749.25;5051939;28;20656;-71
2023/03/09 05:41:31;;;;;;;1.27;1.27;;;;;;;8.59;84.95;98744.97;5049997;28;20219;-72
2023/03/09 05:44:00;;;;;;;0.70;0.70;;;;;;;8.63;85.33;98743.97;5047567;28;20228;-64
2023/03/09 05:46:26;;;;;;;0.60;0.60;;;;;;;8.71;84.94;98749.66;5051609;28;20193;-64
2023/03/09 05:48:53;;;;;;;0.67;0.67;;;;;;;8.80;85.29;98749.38;5051281;28;20243;-64
2023/03/09 05:51:21;;;;;;;0.50;0.50;;;;;;;8.94;85.55;98747.19;5051687;28;20724;-64
2023/03/09 05:53:48;;;;;;;0.43;0.43;;;;;;;9.09;84.59;98756.03;5050357;28;20216;-67
2023/03/09 05:56:15;;;;;;;0.63;0.63;;;;;;;9.28;84.66;98757.06;5047459;28;20201;-71
2023/03/09 05:58:42;;;;;;;0.70;0.70;;;;;;;9.42;84.23;98753.16;5051924;28;20211;-70
2023/03/09 06:01:18;;;;;;;0.50;0.50;;;;;;;9.72;83.54;98763.16;5047883;28;20200;-69
2023/03/09 06:03:45;;;;;;;0.47;0.47;;;;;;;9.92;82.60;98761.50;5047729;28;20672;-69
2023/03/09 06:06:12;;;;;;;0.60;0.60;;;;;;;10.14;81.47;98751.34;5051037;28;20200;-68
2023/03/09 06:08:40;;;;;;;0.53;0.53;;;;;;;10.33;80.66;98754.00;5050775;28;20207;-65
2023/03/09 06:11:07;;;;;;;0.50;0.50;;;;;;;10.38;83.85;98752.09;5049334;28;20216;-65
2023/03/09 06:13:34;;;;;;;0.50;0.50;;;;;;;10.46;84.16;98758.59;5050905;28;20603;-64
2023/03/09 06:16:03;;;;;;;0.50;0.50;;;;;;;10.52;83.03;98757.50;5050502;28;20611;-65
2023/03/09 06:18:30;;;;;;;0.50;0.50;;;;;;;10.65;81.97;98768.09;5048071;28;20655;-65
2023/03/09 06:21:01;;;;;;;0.40;0.40;;;;;;;10.77;81.38;98772.72;5051171;28;20197;-65
2023/03/09 06:23:28;;;;;;;0.40;0.40;;;;;;;10.88;80.02;98766.28;5050565;28;20200;-65
2023/03/09 06:25:56;;;;;;;0.50;0.50;;;;;;;11.03;79.58;98775.88;5047262;28;20213;-65
2023/03/09 06:28:23;;;;;;;0.40;0.40;;;;;;;11.16;79.23;98778.75;5051078;28;20200;-65
2023/03/09 06:30:50;;;;;;;0.40;0.40;;;;;;;11.20;78.14;98772.59;5048054;28;20581;-65
2023/03/09 06:33:17;;;;;;;0.40;0.40;;;;;;;11.40;75.47;98784.59;5049573;28;20221;-67
2023/03/09 06:35:43;;;;;;;0.40;0.40;;;;;;;11.54;75.31;98783.06;5039134;28;20194;-67
2023/03/09 06:38:10;;;;;;;0.50;0.50;;;;;;;11.60;75.60;98787.94;5050849;28;20272;-65
2023/03/09 06:40:37;;;;;;;0.47;0.47;;;;;;;11.67;75.77;98785.09;5044246;28;20211;-64
2023/03/09 06:43:06;;;;;;;0.50;0.50;;;;;;;11.78;74.63;98776.06;5048810;28;20656;-64
2023/03/09 06:45:33;;;;;;;0.40;0.40;;;;;;;11.89;73.31;98775.59;5050277;28;20224;-63
2023/03/09 06:47:59;;;;;;;0.40;0.40;;;;;;;11.94;70.44;98783.91;5051728;28;20259;-65
2023/03/09 06:50:27;;;;;;;1.13;1.13;;;;;;;11.99;70.52;98777.63;5050424;28;20224;-64
2023/03/09 06:52:53;;;;;;;0.60;0.60;;;;;;;12.16;71.43;98773.47;5047113;28;20221;-65
2023/03/09 06:55:20;;;;;;;0.50;0.50;;;;;;;12.27;71.49;98773.81;5050052;28;20672;-65
2023/03/09 06:57:47;;;;;;;0.50;0.50;;;;;;;12.33;71.57;98778.66;5048852;28;21097;-65
2023/03/09 07:00:16;;;;;;;0.50;0.50;;;;;;;12.39;70.56;98781.78;5048624;28;20335;-65
2023/03/09 07:02:43;;;;;;;0.50;0.50;;;;;;;12.43;70.38;98780.72;5043749;28;20197;-65
2023/03/09 07:05:10;;;;;;;0.60;0.60;;;;;;;12.50;70.52;98787.22;5046490;28;20258;-65
2023/03/09 07:07:37;;;;;;;0.40;0.40;;;;;;;12.44;69.46;98777.22;5046189;28;20645;-65
2023/03/09 07:10:05;;;;;;;0.50;0.50;;;;;;;12.47;69.25;98782.22;5046341;28;20252;-64
2023/03/09 07:12:31;;;;;;;0.57;0.57;;;;;;;12.53;70.67;98776.81;5043714;28;20263;-65
2023/03/09 07:14:58;;;;;;;0.50;0.50;;;;;;;12.57;70.41;98774.91;5040268;28;20201;-64
2023/03/09 07:17:26;;;;;;;0.40;0.40;;;;;;;12.66;70.89;98771.06;5047782;28;20208;-65
2023/03/09 07:19:53;;;;;;;0.50;0.50;;;;;;;12.75;69.59;98770.63;5044891;28;20196;-65
2023/03/09 07:22:20;;;;;;;0.57;0.57;;;;;;;12.76;68.10;98772.31;5044946;28;20201;-64
2023/03/09 07:24:47;;;;;;;0.50;0.50;;;;;;;12.84;67.62;98770.16;5044345;28;20204;-65
2023/03/09 07:27:14;;;;;;;0.50;0.50;;;;;;;12.93;68.05;98762.00;5046569;28;20212;-65
2023/03/09 07:29:41;;;;;;;0.50;0.50;;;;;;;13.02;67.35;98769.28;5048917;28;20213;-64
2023/03/09 07:32:08;;;;;;;0.47;0.47;;;;;;;13.03;68.04;98755.47;5042006;28;20198;-65
2023/03/09 07:34:37;;;;;;;0.40;0.40;;;;;;;13.25;67.71;98779.25;5048713;28;20220;-64
2023/03/09 07:37:05;;;;;;;0.60;0.60;;;;;;;13.34;65.56;98776.22;5049348;28;20223;-62
2023/03/09 07:39:32;;;;;;;0.50;0.50;;;;;;;13.43;65.45;98760.31;5049478;28;20257;-64
2023/03/09 07:41:58;;;;;;;0.60;0.60;;;;;;;13.33;66.04;98743.66;5049180;28;20204;-66
2023/03/09 07:44:25;;;;;;;0.50;0.50;;;;;;;13.63;66.05;98767.00;5049991;28;20220;-64
2023/03/09 07:46:52;;;;;;;0.60;0.60;;;;;;;13.72;65.93;98757.94;5048522;28;20675;-66
2023/03/09 07:49:19;;;;;;;0.43;0.43;;;;;;;13.80;65.87;98754.03;5048941;28;20210;-66
2023/03/09 07:51:47;;;;;;;0.47;0.47;;;;;;;13.79;65.21;98752.41;5049073;28;20262;-66
2023/03/09 07:54:14;;;;;;;0.43;0.43;;;;;;;13.90;65.77;98746.66;5048363;28;20227;-66
2023/03/09 07:56:42;;;;;;;0.40;0.40;;;;;;;14.06;65.43;98755.22;5049335;28;20212;-66
2023/03/09 07:59:15;;;;;;;0.40;0.40;;;;;;;14.29;68.41;98756.53;5046558;28;20643;-65
2023/03/09 08:01:41;;;;;;;0.60;0.60;;;;;;;14.40;66.65;98747.31;5047633;28;20212;-66
2023/03/09 08:04:08;;;;;;;0.60;0.60;;;;;;;14.56;67.79;98750.72;5040824;28;20534;-66
2023/03/09 08:06:39;;;;;;;0.77;0.77;;;;;;;14.75;66.85;98744.50;5047144;28;20205;-66
2023/03/09 08:09:12;;;;;;;0.50;0.50;;;;;;;14.93;64.87;98733.09;5044492;28;20206;-66
2023/03/09 08:11:38;;;;;;;0.50;0.50;;;;;;;15.12;64.05;98749.19;5046479;28;20212;-67
2023/03/09 08:14:05;;;;;;;0.50;0.50;;;;;;;15.32;62.45;98750.56;5048984;28;20212;-67
2023/03/09 08:16:32;;;;;;;0.57;0.57;;;;;;;15.53;59.42;98755.31;5047703;28;20201;-66
2023/03/09 08:18:59;;;;;;;0.50;0.50;;;;;;;15.64;59.46;98747.75;5045716;28;20198;-66
2023/03/09 08:21:26;;;;;;;0.50;0.50;;;;;;;15.67;58.41;98751.91;5050003;28;20220;-66
2023/03/09 08:23:53;;;;;;;0.60;0.60;;;;;;;15.77;56.83;98756.41;5048445;28;20201;-66
2023/03/09 08:26:21;;;;;;;0.50;0.50;;;;;;;15.92;57.92;98748.63;5046789;28;20592;-66
2023/03/09 08:28:47;;;;;;;0.40;0.40;;;;;;;16.03;58.43;98738.44;5046743;28;20668;-66
2023/03/09 08:31:17;;;;;;;0.50;0.50;;;;;;;16.11;57.39;98743.97;5046433;28;20197;-62
2023/03/09 08:33:44;;;;;;;0.47;0.47;;;;;;;16.17;59.92;98741.00;5053223;28;20647;-67
2023/03/09 08:36:13;;;;;;;0.60;0.60;;;;;;;16.29;60.88;98747.97;5049632;28;20291;-66
2023/03/09 08:38:41;;;;;;;0.50;0.50;;;;;;;16.37;58.91;98737.16;5049087;28;20193;-65
2023/03/09 08:41:08;;;;;;;0.40;0.40;;;;;;;16.44;57.93;98730.66;5048966;28;20208;-66
2023/03/09 08:43:36;;;;;;;0.47;0.47;;;;;;;16.59;58.04;98737.44;5048904;28;20228;-66
2023/03/09 08:46:03;;;;;;;0.50;0.50;;;;;;;16.65;58.71;98740.47;5047495;28;20201;-66
2023/03/09 08:48:30;;;;;;;0.40;0.40;;;;;;;16.70;56.36;98740.19;5049107;28;20235;-66
2023/03/09 08:50:57;;;;;;;0.63;0.63;;;;;;;16.73;56.07;98738.22;5049783;28;20216;-66
2023/03/09 08:53:23;;;;;;;0.40;0.40;;;;;;;16.77;57.55;98737.06;5052156;28;20216;-69
2023/03/09 08:55:51;;;;;;;0.40;0.40;;;;;;;16.82;55.85;98743.72;5046207;28;20205;-66
2023/03/09 08:58:17;;;;;;;0.47;0.47;;;;;;;16.71;55.52;98729.72;5048458;28;20201;-67
2023/03/09 09:00:47;;;;;;;0.67;0.67;;;;;;;16.73;55.81;98733.03;5049909;28;20670;-66
2023/03/09 09:03:14;;;;;;;0.50;0.50;;;;;;;16.79;55.50;98740.41;5049236;28;20247;-66
2023/03/09 09:05:41;;;;;;;0.40;0.40;;;;;;;16.89;56.99;98740.63;5047659;28;20602;-66
2023/03/09 09:08:07;;;;;;;0.50;0.50;;;;;;;16.94;54.29;98732.53;5050370;28;20734;-66
2023/03/09 09:10:34;;;;;;;0.40;0.40;;;;;;;17.03;56.95;98737.09;5047747;28;20552;-66
2023/03/09 09:13:01;;;;;;;0.50;0.50;;;;;;;17.12;56.82;98739.09;5049758;28;20220;-66
2023/03/09 09:15:28;;;;;;;0.40;0.40;;;;;;;17.11;53.92;98730.50;5048452;28;20196;-66
2023/03/09 09:17:56;;;;;;;0.50;0.50;;;;;;;17.19;56.15;98723.00;5048655;28;20623;-66
2023/03/09 09:20:23;;;;;;;0.50;0.50;;;;;;;17.24;55.40;98725.31;5046896;28;20599;-66
2023/03/09 09:22:50;;;;;;;0.80;0.80;;;;;;;17.30;57.53;98724.88;5048532;28;20263;-66
2023/03/09 09:25:17;;;;;;;0.40;0.40;;;;;;;17.38;55.37;98716.59;5049682;28;20197;-66
2023/03/09 09:27:45;;;;;;;0.40;0.40;;;;;;;17.47;55.50;98713.38;5048116;28;20211;-66
2023/03/09 09:30:13;;;;;;;0.50;0.50;;;;;;;17.61;56.44;98710.69;5047729;28;20618;-66
2023/03/09 09:32:40;;;;;;;0.53;0.53;;;;;;;17.74;55.29;98714.88;5047112;28;20209;-66
2023/03/09 09:35:10;;;;;;;0.60;0.60;;;;;;;17.83;51.93;98698.69;5048355;28;20244;-66
2023/03/09 09:37:38;;;;;;;0.47;0.47;;;;;;;17.91;51.19;98690.38;5047101;28;20216;-66
2023/03/09 09:40:06;;;;;;;0.87;0.87;;;;;;;18.01;51.86;98686.19;5048833;28;20197;-66
2023/03/09 09:42:37;;;;;;;0.40;0.40;;;;;;;18.12;53.04;98693.22;5046479;28;20309;-66
2023/03/09 09:45:08;;;;;;;0.53;0.53;;;;;;;18.25;50.83;98693.97;5048454;28;20232;-65
2023/03/09 09:47:36;;;;;;;0.40;0.40;;;;;;;18.31;49.16;98696.13;5046975;28;20216;-66
2023/03/09 09:50:03;;;;;;;0.50;0.50;;;;;;;18.35;50.46;98695.78;5048290;28;20201;-67
2023/03/09 09:52:47;;;;;;;0.50;0.50;;;;;;;18.40;48.24;98692.84;5048397;28;20212;-66
2023/03/09 09:55:26;;;;;;;0.47;0.47;;;;;;;18.45;47.54;98690.72;5048992;28;20282;-66
2023/03/09 09:58:01;;;;;;;0.60;0.60;;;;;;;18.46;48.26;98682.03;5048089;28;20259;-66
2023/03/09 10:00:34;;;;;;;0.43;0.43;;;;;;;18.54;49.67;98684.09;5048386;28;20204;-66
2023/03/09 10:03:11;;;;;;;0.30;0.30;;;;;;;18.62;47.37;98679.16;5047446;28;20274;-66
2023/03/09 10:05:44;;;;;;;0.50;0.50;;;;;;;18.75;48.62;98672.09;5048042;28;20290;-66
2023/03/09 10:08:35;;;;;;;0.53;0.53;;;;;;;18.73;46.64;98628.09;5048483;28;20283;-66
2023/03/09 10:11:08;;;;;;;0.57;0.57;;;;;;;19.19;48.12;98668.75;5044215;28;20210;-66
2023/03/09 10:13:41;;;;;;;0.33;0.33;;;;;;;19.33;45.69;98663.28;5047471;28;20208;-66
2023/03/09 10:16:14;;;;;;;0.50;0.50;;;;;;;19.36;43.24;98658.69;5045700;28;20203;-66
2023/03/09 10:18:45;;;;;;;0.70;0.70;;;;;;;19.32;41.56;98656.47;5044241;28;20202;-66
2023/03/09 10:21:18;;;;;;;0.53;0.53;;;;;;;19.47;45.68;98647.50;5046551;28;20209;-64
2023/03/09 10:23:47;;;;;;;0.40;0.40;;;;;;;19.59;44.98;98643.09;5048479;28;20600;-67
2023/03/09 10:26:39;;;;;;;0.40;0.40;;;;;;;19.69;43.86;98639.66;5047762;28;20202;-66
2023/03/09 10:29:15;;;;;;;0.43;0.43;;;;;;;19.81;46.57;98625.66;5048256;28;20204;-65
2023/03/09 10:31:50;;;;;;;0.57;0.57;;;;;;;19.88;44.48;98634.63;5049294;28;20750;-64
2023/03/09 10:34:20;;;;;;;0.40;0.40;;;;;;;19.93;44.72;98622.06;5048213;28;20225;-65
2023/03/09 10:36:58;;;;;;;0.60;0.60;;;;;;;19.96;45.61;98628.00;5044941;28;20737;-65
2023/03/09 10:39:33;;;;;;;0.30;0.30;;;;;;;19.95;42.40;98626.34;5048791;28;20211;-65
2023/03/09 10:42:11;;;;;;;0.50;0.50;;;;;;;19.63;43.44;98598.53;5044810;28;20258;-65
2023/03/09 10:44:38;;;;;;;0.40;0.40;;;;;;;19.78;42.60;98605.09;5046637;28;20293;-65
2023/03/09 10:47:05;;;;;;;0.40;0.40;;;;;;;19.89;43.79;98601.66;5043587;28;20217;-66
2023/03/09 10:49:32;;;;;;;0.20;0.20;;;;;;;19.81;42.99;98597.06;5046392;28;20460;-61
2023/03/09 10:52:02;;;;;;;0.43;0.43;;;;;;;19.87;42.95;98591.34;5049237;28;20209;-61
2023/03/09 10:54:35;;;;;;;0.50;0.50;;;;;;;19.93;44.05;98588.25;5049485;28;20627;-61
2023/03/09 10:57:02;;;;;;;0.47;0.47;;;;;;;20.01;43.73;98581.59;5048827;28;20208;-62
2023/03/09 10:59:30;;;;;;;0.50;0.50;;;;;;;20.00;43.86;98574.78;5047569;28;20212;-62
2023/03/09 11:02:00;;;;;;;0.47;0.47;;;;;;;19.91;42.32;98566.75;5047240;28;20242;-61
2023/03/09 11:04:45;;;;;;;0.47;0.47;;;;;;;19.92;43.03;98568.41;5047690;28;20215;-61
2023/03/09 11:07:20;;;;;;;0.40;0.40;;;;;;;19.89;44.07;98563.47;5045330;28;20207;-61
2023/03/09 11:09:52;;;;;;;0.50;0.50;;;;;;;19.92;42.64;98565.81;5049622;28;20307;-61
2023/03/09 11:12:24;;;;;;;0.40;0.40;;;;;;;19.97;42.92;98559.41;5049544;28;20208;-61
2023/03/09 11:14:54;;;;;;;0.40;0.40;;;;;;;20.06;42.90;98551.69;5049461;28;20217;-62
2023/03/09 11:17:39;;;;;;;0.50;0.50;;;;;;;20.14;44.47;98545.81;5045893;28;20282;-61
2023/03/09 11:20:33;;;;;;;0.40;0.40;;;;;;;20.18;43.59;98542.03;5046825;28;20610;-61
2023/03/09 11:23:10;;;;;;;0.40;0.40;;;;;;;20.30;43.24;98535.81;5033698;28;20203;-59
2023/03/09 11:26:00;;;;;;;0.33;0.33;;;;;;;20.41;43.84;98520.13;5049162;28;20203;-60
2023/03/09 11:28:36;;;;;;;0.30;0.30;;;;;;;20.41;41.71;98523.56;5047256;28;20212;-62
2023/03/09 11:31:03;;;;;;;0.40;0.40;;;;;;;20.47;40.79;98516.19;5047325;28;20211;-61
2023/03/09 11:33:31;;;;;;;0.33;0.33;;;;;;;20.65;41.86;98504.19;5048302;28;20207;-61
2023/03/09 11:35:59;;;;;;;0.60;0.60;;;;;;;20.68;40.33;98499.56;5049369;28;20219;-61
2023/03/09 11:38:30;;;;;;;0.30;0.30;;;;;;;20.73;40.53;98499.19;5049544;28;20262;-61
2023/03/09 11:41:08;;;;;;;0.40;0.40;;;;;;;20.73;41.41;98492.19;5048354;28;20212;-62
2023/03/09 11:43:41;;;;;;;0.30;0.30;;;;;;;20.76;40.56;98497.13;5044071;28;20243;-62